Time;durP1;ratioP1;P1;durP2;ratioP2;P2;SDS_P1;SDS_P2;PMS_P1;PMS_P2;Temp;Humidity;BMP_temperature;BMP_pressure;BME280_temperature;BME280_humidity;BME280_pressure;Samples;Min_cycle;Max_cycle;Signal;HPM_P1;HPM_P2
2021/03/10 00:00:10;;;;;;;20.45;19.45;;;;;;;;;;5034878;28;20049;-78
2021/03/10 00:02:37;;;;;;;21.42;20.52;;;;;;;;;;5044522;28;20069;-78
2021/03/10 00:05:06;;;;;;;25.90;24.58;;;;;;;;;;5051769;28;20087;-78
2021/03/10 00:07:33;;;;;;;21.42;20.63;;;;;;;;;;5031359;28;20045;-78
2021/03/10 00:10:00;;;;;;;26.33;25.05;;;;;;;;;;5031375;28;20038;-78
2021/03/10 00:12:27;;;;;;;28.65;27.13;;;;;;;;;;5031939;28;20107;-78
2021/03/10 00:14:54;;;;;;;29.13;27.83;;;;;;;;;;5045268;28;20106;-78
2021/03/10 00:17:21;;;;;;;27.67;26.25;;;;;;;;;;5022997;28;20037;-78
2021/03/10 00:19:49;;;;;;;23.73;22.73;;;;;;;;;;5047840;28;20083;-78
2021/03/10 00:22:16;;;;;;;24.23;22.77;;;;;;;;;;5049729;28;20046;-78
2021/03/10 00:24:44;;;;;;;30.35;29.23;;;;;;;;;;5039055;28;20103;-78
2021/03/10 00:27:23;;;;;;;28.23;27.05;;;;;;;;;;5040873;28;20529;-78
2021/03/10 00:29:54;;;;;;;28.85;27.80;;;;;;;;;;5022652;28;20052;-78
2021/03/10 00:32:21;;;;;;;27.63;26.48;;;;;;;;;;5045656;28;20041;-78
2021/03/10 00:34:49;;;;;;;25.90;24.70;;;;;;;;;;5050034;28;20041;-78
2021/03/10 00:37:16;;;;;;;24.85;23.95;;;;;;;;;;5030754;28;20064;-78
2021/03/10 00:39:44;;;;;;;29.77;28.33;;;;;;;;;;5026541;28;20057;-78
2021/03/10 00:42:12;;;;;;;28.50;27.20;;;;;;;;;;5052523;28;20033;-78
2021/03/10 00:44:39;;;;;;;31.23;30.00;;;;;;;;;;5029895;28;20037;-78
2021/03/10 00:47:06;;;;;;;29.27;27.98;;;;;;;;;;5029077;28;20414;-78
2021/03/10 00:49:34;;;;;;;24.48;23.67;;;;;;;;;;5046834;28;20063;-78
2021/03/10 00:52:01;;;;;;;20.50;19.73;;;;;;;;;;5044966;28;20029;-78
2021/03/10 00:54:28;;;;;;;28.20;27.02;;;;;;;;;;5025817;28;20128;-78
2021/03/10 00:56:55;;;;;;;27.35;26.15;;;;;;;;;;5043881;28;20036;-78
2021/03/10 00:59:22;;;;;;;30.02;28.83;;;;;;;;;;5031475;28;20587;-78
2021/03/10 01:01:50;;;;;;;27.15;26.00;;;;;;;;;;5046977;28;20025;-78
2021/03/10 01:04:17;;;;;;;29.08;27.63;;;;;;;;;;5027163;28;20478;-78
2021/03/10 01:06:44;;;;;;;26.98;25.95;;;;;;;;;;5049569;28;20482;-78
2021/03/10 01:09:11;;;;;;;30.80;29.58;;;;;;;;;;5044874;28;20037;-78
2021/03/10 01:11:39;;;;;;;30.75;29.35;;;;;;;;;;5034118;28;20048;-78
2021/03/10 01:14:07;;;;;;;31.58;30.40;;;;;;;;;;5027900;28;20136;-78
2021/03/10 01:16:34;;;;;;;30.85;29.52;;;;;;;;;;5032984;28;20406;-78
2021/03/10 01:19:01;;;;;;;32.58;31.00;;;;;;;;;;5047109;28;20135;-78
2021/03/10 01:21:28;;;;;;;32.00;30.70;;;;;;;;;;5011719;28;20095;-78
2021/03/10 01:23:55;;;;;;;31.40;29.75;;;;;;;;;;5025651;28;20044;-78
2021/03/10 01:26:22;;;;;;;30.60;29.35;;;;;;;;;;5025011;28;20041;-78
2021/03/10 01:28:50;;;;;;;29.75;28.45;;;;;;;;;;5029331;28;20148;-78
2021/03/10 01:31:17;;;;;;;29.30;28.08;;;;;;;;;;5046985;28;20044;-78
2021/03/10 01:33:44;;;;;;;32.97;31.45;;;;;;;;;;5029889;28;20041;-78
2021/03/10 01:36:12;;;;;;;31.58;30.08;;;;;;;;;;5049807;28;20449;-78
2021/03/10 01:38:39;;;;;;;30.92;29.70;;;;;;;;;;5025999;28;20041;-78
2021/03/10 01:41:07;;;;;;;30.70;29.38;;;;;;;;;;5047454;28;20061;-78
2021/03/10 01:43:34;;;;;;;35.85;34.10;;;;;;;;;;5045513;28;20502;-78
2021/03/10 01:46:01;;;;;;;34.95;33.47;;;;;;;;;;5012881;28;20079;-78
2021/03/10 01:48:28;;;;;;;31.23;30.00;;;;;;;;;;5032648;28;20072;-78
2021/03/10 01:50:56;;;;;;;32.58;31.02;;;;;;;;;;5027516;28;20439;-78
2021/03/10 01:53:23;;;;;;;33.30;31.50;;;;;;;;;;5028766;28;20470;-78
2021/03/10 01:55:52;;;;;;;32.70;31.05;;;;;;;;;;5016133;28;20102;-78
2021/03/10 01:58:20;;;;;;;30.90;29.67;;;;;;;;;;5046587;28;20045;-78
2021/03/10 02:00:47;;;;;;;32.80;31.13;;;;;;;;;;5047556;28;20076;-78
2021/03/10 02:03:14;;;;;;;34.50;33.10;;;;;;;;;;5028254;28;20064;-78
2021/03/10 02:05:42;;;;;;;34.47;32.88;;;;;;;;;;5048212;28;20553;-78
2021/03/10 02:08:15;;;;;;;34.10;32.80;;;;;;;;;;5042625;28;20701;-78
2021/03/10 02:10:42;;;;;;;35.22;33.45;;;;;;;;;;5034023;28;20076;-78
2021/03/10 02:13:27;;;;;;;34.85;33.47;;;;;;;;;;5040229;28;20497;-78
2021/03/10 02:16:29;;;;;;;34.70;33.22;;;;;;;;;;5038873;28;20088;-78
2021/03/10 02:19:17;;;;;;;35.35;33.83;;;;;;;;;;4991475;28;20046;-78
2021/03/10 02:22:02;;;;;;;36.72;35.10;;;;;;;;;;5042679;28;20072;-78
2021/03/10 02:24:47;;;;;;;34.38;33.15;;;;;;;;;;5027065;28;20425;-78
2021/03/10 02:27:33;;;;;;;36.63;35.13;;;;;;;;;;5029751;28;20224;-78
2021/03/10 02:30:08;;;;;;;37.85;36.35;;;;;;;;;;5047426;28;20047;-78
2021/03/10 02:32:37;;;;;;;36.78;35.47;;;;;;;;;;5040057;28;20081;-78
2021/03/10 02:35:06;;;;;;;37.33;35.72;;;;;;;;;;5048445;28;20049;-78
2021/03/10 02:37:34;;;;;;;34.90;33.40;;;;;;;;;;5009872;28;20119;-78
2021/03/10 02:40:01;;;;;;;35.38;34.08;;;;;;;;;;5028034;28;20045;-78
2021/03/10 02:42:29;;;;;;;34.88;33.22;;;;;;;;;;5032671;28;20044;-78
2021/03/10 02:44:56;;;;;;;33.92;32.65;;;;;;;;;;5023283;28;20111;-78
2021/03/10 02:47:25;;;;;;;34.55;33.22;;;;;;;;;;5047993;28;20757;-78
2021/03/10 02:49:53;;;;;;;35.13;33.13;;;;;;;;;;5042323;28;20112;-78
2021/03/10 02:52:22;;;;;;;31.35;30.17;;;;;;;;;;5017607;28;20502;-78
2021/03/10 02:54:49;;;;;;;38.13;36.47;;;;;;;;;;5030372;28;20494;-78
2021/03/10 02:57:16;;;;;;;37.13;35.63;;;;;;;;;;5027543;28;20044;-78
2021/03/10 02:59:45;;;;;;;35.40;33.95;;;;;;;;;;5032549;28;20053;-78
2021/03/10 03:02:13;;;;;;;36.70;34.83;;;;;;;;;;5009745;28;20056;-78
2021/03/10 03:04:41;;;;;;;33.95;32.60;;;;;;;;;;5031129;28;20037;-78
2021/03/10 03:07:17;;;;;;;39.42;37.50;;;;;;;;;;5046304;28;20043;-78
2021/03/10 03:09:44;;;;;;;34.85;33.33;;;;;;;;;;5013662;28;20041;-78
2021/03/10 03:12:13;;;;;;;35.03;33.70;;;;;;;;;;5036349;28;20045;-78
2021/03/10 03:14:42;;;;;;;37.88;36.20;;;;;;;;;;5044343;28;20037;-78
2021/03/10 03:17:10;;;;;;;38.22;36.53;;;;;;;;;;5038114;28;20046;-78
2021/03/10 03:19:38;;;;;;;39.80;37.90;;;;;;;;;;5032671;28;20036;-78
2021/03/10 03:22:06;;;;;;;38.47;36.75;;;;;;;;;;5030514;28;20038;-78
2021/03/10 03:24:33;;;;;;;36.78;35.30;;;;;;;;;;5035690;28;20067;-78
2021/03/10 03:27:01;;;;;;;38.05;36.55;;;;;;;;;;5047540;28;20041;-78
2021/03/10 03:29:28;;;;;;;39.60;37.67;;;;;;;;;;5018441;28;20045;-78
2021/03/10 03:31:56;;;;;;;40.42;38.72;;;;;;;;;;5017670;28;20068;-78
2021/03/10 03:34:24;;;;;;;38.50;36.80;;;;;;;;;;5031033;28;20487;-78
2021/03/10 03:36:52;;;;;;;37.88;36.33;;;;;;;;;;5035113;28;20433;-78
2021/03/10 03:39:19;;;;;;;37.83;36.22;;;;;;;;;;5029389;28;20539;-78
2021/03/10 03:41:47;;;;;;;37.70;35.83;;;;;;;;;;5019237;28;20112;-78
2021/03/10 03:44:14;;;;;;;41.67;39.85;;;;;;;;;;5029224;28;20037;-78
2021/03/10 03:46:41;;;;;;;37.58;36.08;;;;;;;;;;5025759;28;20059;-78
2021/03/10 03:49:08;;;;;;;37.47;35.30;;;;;;;;;;5028998;28;20052;-78
2021/03/10 03:51:36;;;;;;;38.33;36.72;;;;;;;;;;5045164;28;20429;-78
2021/03/10 03:54:04;;;;;;;36.20;34.70;;;;;;;;;;5035670;28;20036;-78
2021/03/10 03:56:32;;;;;;;37.42;35.60;;;;;;;;;;5030924;28;20128;-78
2021/03/10 03:58:59;;;;;;;37.08;35.40;;;;;;;;;;5048441;28;20088;-78
2021/03/10 04:01:26;;;;;;;39.00;37.10;;;;;;;;;;5047561;28;20041;-78
2021/03/10 04:03:54;;;;;;;40.17;38.30;;;;;;;;;;5047167;28;20033;-78
2021/03/10 04:06:21;;;;;;;38.13;36.60;;;;;;;;;;5019115;28;20441;-78
2021/03/10 04:08:48;;;;;;;37.88;36.00;;;;;;;;;;5043814;28;20214;-78
2021/03/10 04:11:16;;;;;;;39.33;37.80;;;;;;;;;;5009576;28;20045;-78
2021/03/10 04:13:43;;;;;;;40.08;37.42;;;;;;;;;;5018052;28;20494;-78
2021/03/10 04:16:10;;;;;;;36.97;35.58;;;;;;;;;;5039300;28;20064;-78
2021/03/10 04:18:38;;;;;;;39.00;37.30;;;;;;;;;;5034635;28;20144;-78
2021/03/10 04:21:06;;;;;;;41.05;39.25;;;;;;;;;;5025361;28;20054;-78
2021/03/10 04:23:34;;;;;;;39.08;37.47;;;;;;;;;;5017894;28;20504;-78
2021/03/10 04:26:01;;;;;;;39.20;37.20;;;;;;;;;;5014590;28;20098;-78
2021/03/10 04:28:28;;;;;;;38.47;36.70;;;;;;;;;;5046731;28;20041;-78
2021/03/10 04:30:55;;;;;;;40.15;38.05;;;;;;;;;;5032570;28;20052;-78
2021/03/10 04:33:22;;;;;;;37.88;36.15;;;;;;;;;;5028019;28;20073;-78
2021/03/10 04:35:49;;;;;;;38.10;36.28;;;;;;;;;;5051347;28;20119;-78
2021/03/10 04:38:27;;;;;;;40.17;38.40;;;;;;;;;;5030824;28;20120;-78
2021/03/10 04:40:54;;;;;;;37.88;36.30;;;;;;;;;;5029593;28;20493;-78
2021/03/10 04:43:21;;;;;;;40.63;39.03;;;;;;;;;;5026582;28;20465;-78
2021/03/10 04:45:48;;;;;;;35.00;33.38;;;;;;;;;;5022848;28;20033;-78
2021/03/10 04:48:16;;;;;;;38.50;36.88;;;;;;;;;;5021926;28;20037;-78
2021/03/10 04:50:43;;;;;;;39.13;37.60;;;;;;;;;;5044618;28;20041;-78
2021/03/10 04:53:10;;;;;;;40.75;39.05;;;;;;;;;;5049907;28;20133;-78
2021/03/10 04:55:37;;;;;;;39.88;38.17;;;;;;;;;;5033493;28;20041;-78
2021/03/10 04:58:04;;;;;;;39.40;37.40;;;;;;;;;;5027039;28;20439;-78
2021/03/10 05:00:31;;;;;;;38.22;36.67;;;;;;;;;;5051114;28;20041;-78
2021/03/10 05:02:58;;;;;;;41.63;39.45;;;;;;;;;;5031252;28;20083;-78
2021/03/10 05:05:26;;;;;;;41.38;39.58;;;;;;;;;;5030116;28;20063;-78
2021/03/10 05:07:53;;;;;;;38.40;36.50;;;;;;;;;;5025491;28;20049;-78
2021/03/10 05:10:20;;;;;;;39.40;37.55;;;;;;;;;;5037405;28;20073;-78
2021/03/10 05:12:47;;;;;;;37.60;36.05;;;;;;;;;;5027566;28;20091;-78
2021/03/10 05:15:14;;;;;;;35.78;34.58;;;;;;;;;;5023705;28;20540;-78
2021/03/10 05:17:40;;;;;;;39.83;38.13;;;;;;;;;;5014726;28;20093;-78
2021/03/10 05:20:08;;;;;;;36.50;35.03;;;;;;;;;;5028253;28;20041;-78
2021/03/10 05:22:36;;;;;;;40.20;38.22;;;;;;;;;;5046829;28;20525;-78
2021/03/10 05:25:03;;;;;;;39.92;38.05;;;;;;;;;;5031677;28;20405;-78
2021/03/10 05:27:31;;;;;;;37.85;36.40;;;;;;;;;;5043902;28;20037;-78
2021/03/10 05:30:01;;;;;;;39.35;37.50;;;;;;;;;;5021627;28;20041;-78
2021/03/10 05:32:28;;;;;;;39.05;37.20;;;;;;;;;;5041372;28;20041;-78
2021/03/10 05:34:56;;;;;;;38.92;36.90;;;;;;;;;;5019274;28;20029;-78
2021/03/10 05:37:23;;;;;;;40.58;38.25;;;;;;;;;;5046367;28;20465;-78
2021/03/10 05:39:50;;;;;;;39.10;37.42;;;;;;;;;;5040023;28;20025;-78
2021/03/10 05:42:17;;;;;;;39.60;38.05;;;;;;;;;;5032318;28;20041;-78
2021/03/10 05:44:49;;;;;;;41.65;39.75;;;;;;;;;;5027041;28;20091;-78
2021/03/10 05:47:16;;;;;;;39.60;37.80;;;;;;;;;;5045448;28;20037;-78
2021/03/10 05:49:43;;;;;;;42.15;40.33;;;;;;;;;;5030000;28;20094;-78
2021/03/10 05:52:12;;;;;;;39.83;38.17;;;;;;;;;;5044739;28;20040;-78
2021/03/10 05:54:42;;;;;;;39.42;37.70;;;;;;;;;;5031926;28;20044;-78
2021/03/10 05:57:09;;;;;;;39.47;37.85;;;;;;;;;;5025296;28;20421;-78
2021/03/10 05:59:36;;;;;;;39.42;37.72;;;;;;;;;;5031870;28;20083;-78
2021/03/10 06:02:04;;;;;;;48.90;44.97;;;;;;;;;;5046122;28;20454;-78
2021/03/10 06:04:37;;;;;;;49.85;46.28;;;;;;;;;;5040716;28;20068;-78
2021/03/10 06:07:05;;;;;;;47.88;45.00;;;;;;;;;;5033657;28;20050;-78
2021/03/10 06:09:38;;;;;;;41.05;38.72;;;;;;;;;;5023415;28;20029;-77
2021/03/10 06:12:05;;;;;;;42.72;40.72;;;;;;;;;;5038607;28;20040;-77
2021/03/10 06:14:33;;;;;;;37.50;35.90;;;;;;;;;;5025810;28;20053;-77
2021/03/10 06:17:08;;;;;;;40.00;38.30;;;;;;;;;;5027350;28;20495;-77
2021/03/10 06:19:44;;;;;;;41.97;40.05;;;;;;;;;;5027982;28;20602;-78
2021/03/10 06:22:12;;;;;;;43.72;41.55;;;;;;;;;;5041571;28;20102;-78
2021/03/10 06:24:40;;;;;;;42.78;40.28;;;;;;;;;;5048440;28;20382;-78
2021/03/10 06:27:08;;;;;;;45.78;43.13;;;;;;;;;;5045311;28;20064;-78
2021/03/10 06:29:35;;;;;;;45.50;43.25;;;;;;;;;;5042772;28;20044;-78
2021/03/10 06:32:09;;;;;;;43.40;41.20;;;;;;;;;;5021366;28;20073;-79
2021/03/10 06:34:43;;;;;;;43.83;41.28;;;;;;;;;;5041195;28;20072;-79
2021/03/10 06:37:11;;;;;;;42.75;40.65;;;;;;;;;;5019743;28;20485;-79
2021/03/10 06:40:13;;;;;;;43.55;41.20;;;;;;;;;;5028982;28;20045;-79
2021/03/10 06:42:40;;;;;;;42.13;39.70;;;;;;;;;;5012607;28;20132;-79
2021/03/10 06:45:08;;;;;;;43.20;40.90;;;;;;;;;;5036846;28;20041;-79
2021/03/10 06:47:36;;;;;;;40.30;37.83;;;;;;;;;;5030128;28;20041;-79
2021/03/10 06:50:04;;;;;;;40.15;38.20;;;;;;;;;;5027462;28;20721;-79
2021/03/10 06:52:32;;;;;;;41.40;39.20;;;;;;;;;;5046027;28;20087;-79
2021/03/10 06:55:01;;;;;;;40.45;38.25;;;;;;;;;;5030795;28;20079;-80
2021/03/10 06:57:28;;;;;;;43.08;40.60;;;;;;;;;;5053704;28;20048;-80
2021/03/10 06:59:56;;;;;;;46.30;43.38;;;;;;;;;;5049038;28;20048;-81
2021/03/10 07:02:27;;;;;;;45.88;42.85;;;;;;;;;;5050463;28;20560;-81
2021/03/10 07:04:56;;;;;;;43.40;40.90;;;;;;;;;;5043945;28;20130;-81
2021/03/10 07:07:23;;;;;;;38.72;36.58;;;;;;;;;;5026115;28;20715;-81
2021/03/10 07:09:51;;;;;;;16.83;15.52;;;;;;;;;;5037047;28;20069;-81
2021/03/10 07:12:18;;;;;;;17.52;16.08;;;;;;;;;;5031521;28;20069;-81
2021/03/10 07:14:47;;;;;;;15.82;14.82;;;;;;;;;;5033112;28;20752;-81
2021/03/10 07:17:20;;;;;;;14.18;13.48;;;;;;;;;;5034106;28;20488;-80
2021/03/10 07:19:51;;;;;;;13.90;12.95;;;;;;;;;;5029131;28;20107;-80
2021/03/10 07:22:24;;;;;;;15.60;14.60;;;;;;;;;;5054236;28;20041;-80
2021/03/10 07:25:03;;;;;;;16.35;15.02;;;;;;;;;;5026920;28;20041;-80
2021/03/10 07:27:36;;;;;;;18.17;16.77;;;;;;;;;;5040625;28;20033;-80
2021/03/10 07:30:04;;;;;;;33.35;27.35;;;;;;;;;;5034502;28;20508;-80
2021/03/10 07:32:31;;;;;;;18.42;17.25;;;;;;;;;;5028751;28;20119;-80
2021/03/10 07:35:03;;;;;;;22.55;21.13;;;;;;;;;;5054836;28;20045;-80
2021/03/10 07:37:30;;;;;;;16.58;15.27;;;;;;;;;;5031243;28;20047;-80
2021/03/10 07:40:11;;;;;;;14.55;13.65;;;;;;;;;;5032630;28;20099;-81
2021/03/10 07:42:54;;;;;;;13.77;12.68;;;;;;;;;;5042469;28;20041;-81
2021/03/10 07:45:22;;;;;;;16.45;15.18;;;;;;;;;;5027151;28;20604;-81
2021/03/10 07:47:50;;;;;;;16.00;14.95;;;;;;;;;;5034600;28;20067;-80
2021/03/10 07:50:17;;;;;;;14.65;13.68;;;;;;;;;;5017562;28;20037;-81
2021/03/10 07:52:54;;;;;;;14.63;13.85;;;;;;;;;;5033116;28;20044;-80
2021/03/10 07:55:22;;;;;;;20.27;18.80;;;;;;;;;;5005165;28;20056;-80
2021/03/10 07:57:50;;;;;;;15.15;14.23;;;;;;;;;;5043516;28;20061;-80
2021/03/10 08:00:17;;;;;;;16.05;15.10;;;;;;;;;;5034222;28;20068;-81
2021/03/10 08:02:47;;;;;;;16.58;14.80;;;;;;;;;;5030252;28;20049;-81
2021/03/10 08:05:24;;;;;;;14.13;13.40;;;;;;;;;;5027826;28;20041;-81
2021/03/10 08:08:07;;;;;;;12.25;11.70;;;;;;;;;;5050920;28;20045;-81
2021/03/10 08:10:35;;;;;;;11.35;10.68;;;;;;;;;;5033225;28;20351;-81
2021/03/10 08:13:13;;;;;;;12.40;11.93;;;;;;;;;;5033520;28;20124;-81
2021/03/10 08:15:40;;;;;;;11.43;10.82;;;;;;;;;;5048921;28;20072;-81
2021/03/10 08:18:07;;;;;;;12.07;11.45;;;;;;;;;;5047305;28;20044;-81
2021/03/10 08:20:35;;;;;;;12.30;11.68;;;;;;;;;;5034301;28;20421;-81
2021/03/10 08:23:03;;;;;;;11.43;10.93;;;;;;;;;;5029631;28;20060;-81
2021/03/10 08:25:30;;;;;;;11.15;10.55;;;;;;;;;;5032020;28;20037;-81
2021/03/10 08:27:57;;;;;;;10.73;10.18;;;;;;;;;;5048183;28;20045;-81
2021/03/10 08:30:25;;;;;;;9.98;9.68;;;;;;;;;;5016778;28;20370;-81
2021/03/10 08:33:02;;;;;;;11.05;10.27;;;;;;;;;;5048832;28;20033;-81
2021/03/10 08:35:30;;;;;;;12.35;11.68;;;;;;;;;;5044242;28;20095;-81
2021/03/10 08:37:58;;;;;;;10.55;10.23;;;;;;;;;;5051678;28;20379;-81
2021/03/10 08:40:26;;;;;;;9.65;9.25;;;;;;;;;;5047221;28;20120;-81
2021/03/10 08:42:53;;;;;;;10.30;9.65;;;;;;;;;;5028116;28;20094;-81
2021/03/10 08:45:21;;;;;;;14.07;13.05;;;;;;;;;;5050820;28;20033;-81
2021/03/10 08:48:03;;;;;;;16.85;14.05;;;;;;;;;;5045982;28;20083;-81
2021/03/10 08:50:34;;;;;;;11.75;11.25;;;;;;;;;;5032405;28;20037;-81
2021/03/10 08:53:02;;;;;;;16.77;14.98;;;;;;;;;;5043205;28;20824;-81
2021/03/10 08:55:29;;;;;;;10.50;9.68;;;;;;;;;;5047086;28;20490;-81
2021/03/10 08:57:59;;;;;;;10.35;9.82;;;;;;;;;;5032836;28;20563;-81
2021/03/10 09:00:27;;;;;;;10.98;10.68;;;;;;;;;;5043144;28;20073;-81
2021/03/10 09:02:54;;;;;;;12.38;11.57;;;;;;;;;;5045429;28;20037;-81
2021/03/10 09:05:28;;;;;;;11.32;10.65;;;;;;;;;;5046651;28;20397;-82
2021/03/10 09:07:56;;;;;;;10.63;10.13;;;;;;;;;;5027328;28;20044;-82
2021/03/10 09:10:24;;;;;;;9.10;8.77;;;;;;;;;;5054062;28;20091;-82
2021/03/10 09:12:51;;;;;;;10.18;9.85;;;;;;;;;;5027873;28;20037;-81
2021/03/10 09:15:24;;;;;;;10.57;10.15;;;;;;;;;;5031522;28;20061;-81
2021/03/10 09:17:51;;;;;;;9.70;9.27;;;;;;;;;;5030344;28;20560;-81
2021/03/10 09:20:27;;;;;;;10.60;10.00;;;;;;;;;;5028716;28;20094;-81
2021/03/10 09:22:54;;;;;;;11.07;10.43;;;;;;;;;;5050904;28;20029;-82
2021/03/10 09:25:22;;;;;;;8.50;8.10;;;;;;;;;;5044597;28;20072;-82
2021/03/10 09:28:00;;;;;;;9.77;9.35;;;;;;;;;;5017622;28;20038;-82
2021/03/10 09:30:29;;;;;;;9.32;8.90;;;;;;;;;;5040704;28;20032;-82
2021/03/10 09:32:56;;;;;;;10.50;10.10;;;;;;;;;;5046962;28;20037;-82
2021/03/10 09:35:24;;;;;;;10.25;9.88;;;;;;;;;;5033853;28;20037;-82
2021/03/10 09:37:53;;;;;;;9.75;9.23;;;;;;;;;;5029972;28;20037;-81
2021/03/10 09:40:21;;;;;;;9.65;9.25;;;;;;;;;;5014918;28;20135;-81
2021/03/10 09:43:01;;;;;;;9.18;8.80;;;;;;;;;;5048049;28;20037;-81
2021/03/10 09:45:30;;;;;;;8.55;8.35;;;;;;;;;;5044419;28;20045;-81
2021/03/10 09:48:06;;;;;;;8.68;8.48;;;;;;;;;;5033766;28;20041;-81
2021/03/10 09:50:43;;;;;;;8.98;8.60;;;;;;;;;;5028113;28;20032;-81
2021/03/10 09:53:18;;;;;;;8.88;8.57;;;;;;;;;;5048997;28;20047;-81
2021/03/10 09:55:45;;;;;;;9.93;9.48;;;;;;;;;;5029092;28;20045;-81
2021/03/10 09:58:13;;;;;;;9.00;8.60;;;;;;;;;;5024703;28;20033;-81
2021/03/10 10:00:41;;;;;;;9.60;9.23;;;;;;;;;;5031425;28;20472;-81
2021/03/10 10:03:10;;;;;;;9.15;8.70;;;;;;;;;;5043167;28;20044;-81
2021/03/10 10:05:41;;;;;;;9.40;9.00;;;;;;;;;;5048392;28;20041;-81
2021/03/10 10:08:09;;;;;;;7.97;7.68;;;;;;;;;;5028904;28;20485;-82
2021/03/10 10:10:37;;;;;;;8.32;8.07;;;;;;;;;;5024228;28;20073;-81
2021/03/10 10:13:05;;;;;;;8.23;8.02;;;;;;;;;;5051244;28;20052;-82
2021/03/10 10:15:33;;;;;;;7.40;7.18;;;;;;;;;;5024087;28;20069;-82
2021/03/10 10:18:05;;;;;;;9.18;8.48;;;;;;;;;;5040770;28;20124;-82
2021/03/10 10:20:34;;;;;;;9.25;8.93;;;;;;;;;;5045690;28;20041;-82
2021/03/10 10:23:05;;;;;;;8.68;8.13;;;;;;;;;;5027222;28;20041;-81
2021/03/10 10:25:33;;;;;;;63.60;57.38;;;;;;;;;;5033043;28;20041;-81
2021/03/10 10:28:00;;;;;;;8.85;8.55;;;;;;;;;;5044012;28;20612;-81
2021/03/10 10:30:28;;;;;;;11.43;10.88;;;;;;;;;;5045847;28;20057;-82
2021/03/10 10:32:55;;;;;;;8.27;7.88;;;;;;;;;;5028481;28;20041;-81
2021/03/10 10:35:22;;;;;;;7.53;7.32;;;;;;;;;;5030208;28;20049;-81
2021/03/10 10:37:49;;;;;;;7.68;7.47;;;;;;;;;;5038023;28;20073;-81
2021/03/10 10:40:18;;;;;;;8.43;7.88;;;;;;;;;;5038655;28;20440;-81
2021/03/10 10:42:51;;;;;;;8.10;7.80;;;;;;;;;;5015817;28;20043;-81
2021/03/10 10:45:19;;;;;;;9.52;8.80;;;;;;;;;;5015994;28;20094;-81
2021/03/10 10:47:46;;;;;;;7.25;6.80;;;;;;;;;;5013322;28;20033;-81
2021/03/10 10:50:15;;;;;;;7.13;6.63;;;;;;;;;;5048507;28;20029;-81
2021/03/10 10:52:44;;;;;;;6.95;6.65;;;;;;;;;;5043093;28;20068;-81
2021/03/10 10:55:13;;;;;;;6.82;6.60;;;;;;;;;;5015190;28;20109;-82
2021/03/10 10:57:40;;;;;;;7.28;7.15;;;;;;;;;;5041955;28;20041;-81
2021/03/10 11:00:11;;;;;;;8.40;7.78;;;;;;;;;;5042351;28;20041;-81
2021/03/10 11:02:38;;;;;;;6.35;6.05;;;;;;;;;;5044729;28;20048;-81
2021/03/10 11:05:06;;;;;;;6.32;6.07;;;;;;;;;;5043340;28;20370;-81
2021/03/10 11:07:34;;;;;;;7.85;7.35;;;;;;;;;;5025770;28;20041;-81
2021/03/10 11:10:02;;;;;;;5.65;5.32;;;;;;;;;;5025995;28;20025;-81
2021/03/10 11:12:30;;;;;;;7.18;6.88;;;;;;;;;;5045307;28;20064;-81
2021/03/10 11:14:56;;;;;;;6.50;6.30;;;;;;;;;;5028977;28;20041;-81
2021/03/10 11:17:23;;;;;;;7.22;6.80;;;;;;;;;;5045282;28;20049;-81
2021/03/10 11:19:51;;;;;;;4.70;4.55;;;;;;;;;;5048172;28;20043;-81
2021/03/10 11:22:19;;;;;;;5.93;5.65;;;;;;;;;;5041047;28;20041;-81
2021/03/10 11:24:46;;;;;;;5.78;5.53;;;;;;;;;;5027687;28;20103;-81
2021/03/10 11:27:17;;;;;;;6.30;6.10;;;;;;;;;;5015030;28;20049;-82
2021/03/10 11:29:45;;;;;;;7.25;6.57;;;;;;;;;;5045149;28;20041;-82
2021/03/10 11:32:13;;;;;;;7.50;7.22;;;;;;;;;;5028331;28;20470;-82
2021/03/10 11:34:41;;;;;;;7.15;6.68;;;;;;;;;;5044001;28;20038;-82
2021/03/10 11:37:08;;;;;;;7.57;7.13;;;;;;;;;;5013584;28;20053;-81
2021/03/10 11:39:38;;;;;;;8.00;7.70;;;;;;;;;;5028623;28;20133;-82
2021/03/10 11:42:06;;;;;;;7.25;7.13;;;;;;;;;;5042597;28;20029;-82
2021/03/10 11:44:33;;;;;;;6.65;6.38;;;;;;;;;;5033964;28;20090;-82
2021/03/10 11:47:00;;;;;;;9.18;8.63;;;;;;;;;;5047473;28;20513;-82
2021/03/10 11:49:27;;;;;;;5.53;5.40;;;;;;;;;;5048844;28;20491;-81
2021/03/10 11:51:54;;;;;;;6.72;6.50;;;;;;;;;;5044673;28;20521;-81
2021/03/10 11:54:23;;;;;;;6.10;5.80;;;;;;;;;;5033908;28;20049;-81
2021/03/10 11:56:50;;;;;;;6.10;6.00;;;;;;;;;;5034966;28;20106;-81
2021/03/10 11:59:17;;;;;;;6.03;5.68;;;;;;;;;;5032694;28;20386;-81
2021/03/10 12:01:44;;;;;;;4.97;4.88;;;;;;;;;;5050199;28;20072;-81
2021/03/10 12:04:12;;;;;;;4.43;4.32;;;;;;;;;;5045716;28;20117;-81
2021/03/10 12:06:39;;;;;;;5.07;4.88;;;;;;;;;;5036276;28;20060;-81
2021/03/10 12:09:06;;;;;;;5.55;5.13;;;;;;;;;;5039400;28;20048;-82
2021/03/10 12:11:34;;;;;;;4.93;4.78;;;;;;;;;;5059245;28;20044;-82
2021/03/10 12:14:19;;;;;;;4.70;4.60;;;;;;;;;;5059381;28;20521;-82
2021/03/10 12:16:46;;;;;;;5.20;5.10;;;;;;;;;;5054684;28;20604;-81
2021/03/10 12:19:14;;;;;;;6.32;6.00;;;;;;;;;;5059796;28;20046;-81
2021/03/10 12:21:41;;;;;;;4.85;4.75;;;;;;;;;;5039062;28;20493;-81
2021/03/10 12:24:09;;;;;;;5.47;5.30;;;;;;;;;;5042398;28;20091;-82
2021/03/10 12:26:37;;;;;;;4.75;4.65;;;;;;;;;;5040876;28;20037;-82
2021/03/10 12:29:05;;;;;;;4.68;4.57;;;;;;;;;;5019920;28;20049;-82
2021/03/10 12:31:32;;;;;;;4.38;4.22;;;;;;;;;;5042309;28;20069;-82
2021/03/10 12:34:01;;;;;;;5.30;5.10;;;;;;;;;;5021607;28;20041;-82
2021/03/10 12:36:28;;;;;;;5.57;5.22;;;;;;;;;;5056602;28;20037;-81
2021/03/10 12:38:55;;;;;;;5.30;5.10;;;;;;;;;;5027502;28;20640;-78
2021/03/10 12:41:22;;;;;;;4.78;4.68;;;;;;;;;;5043781;28;20385;-78
2021/03/10 12:43:50;;;;;;;4.10;3.72;;;;;;;;;;5033178;28;20047;-78
2021/03/10 12:46:17;;;;;;;4.25;4.10;;;;;;;;;;5028690;28;20041;-78
2021/03/10 12:48:45;;;;;;;5.40;5.30;;;;;;;;;;5049021;28;20039;-78
2021/03/10 12:51:12;;;;;;;5.60;5.50;;;;;;;;;;5029139;28;20041;-78
2021/03/10 12:53:40;;;;;;;5.38;5.20;;;;;;;;;;5011080;28;20049;-78
2021/03/10 12:56:07;;;;;;;5.50;5.30;;;;;;;;;;5046041;28;20498;-78
2021/03/10 12:58:35;;;;;;;36.45;25.08;;;;;;;;;;5041794;28;20128;-78
2021/03/10 13:01:02;;;;;;;4.75;4.65;;;;;;;;;;5051316;28;20044;-78
2021/03/10 13:03:30;;;;;;;8.57;8.18;;;;;;;;;;5032771;28;20044;-78
2021/03/10 13:05:57;;;;;;;6.85;6.55;;;;;;;;;;5028552;28;20052;-78
2021/03/10 13:08:24;;;;;;;5.68;5.57;;;;;;;;;;5033223;28;20445;-78
2021/03/10 13:10:51;;;;;;;6.53;6.35;;;;;;;;;;5044319;28;20520;-78
2021/03/10 13:13:24;;;;;;;4.55;4.45;;;;;;;;;;5026146;28;20057;-78
2021/03/10 13:15:51;;;;;;;5.45;5.35;;;;;;;;;;5022494;28;20049;-79
2021/03/10 13:18:18;;;;;;;7.25;6.70;;;;;;;;;;5019388;28;20072;-78
2021/03/10 13:20:46;;;;;;;5.20;5.07;;;;;;;;;;5029129;28;20029;-78
2021/03/10 13:23:13;;;;;;;10.50;9.70;;;;;;;;;;5028544;28;20044;-78
2021/03/10 13:25:41;;;;;;;5.18;5.07;;;;;;;;;;5028272;28;20048;-78
2021/03/10 13:28:08;;;;;;;6.05;5.95;;;;;;;;;;5043760;28;20037;-78
2021/03/10 13:30:35;;;;;;;6.55;6.13;;;;;;;;;;5044000;28;20398;-79
2021/03/10 13:33:03;;;;;;;6.80;6.30;;;;;;;;;;5046805;28;20037;-81
2021/03/10 13:35:30;;;;;;;4.72;4.63;;;;;;;;;;5043981;28;20029;-79
2021/03/10 13:37:57;;;;;;;8.60;7.57;;;;;;;;;;5017727;28;20037;-80
2021/03/10 13:40:24;;;;;;;5.13;5.03;;;;;;;;;;5044321;28;20044;-80
2021/03/10 13:42:51;;;;;;;4.30;4.20;;;;;;;;;;5031681;28;20030;-80
2021/03/10 13:45:30;;;;;;;4.45;4.00;;;;;;;;;;5051541;28;20044;-80
2021/03/10 13:47:57;;;;;;;3.92;3.72;;;;;;;;;;5026025;28;20041;-80
2021/03/10 13:50:25;;;;;;;4.22;4.03;;;;;;;;;;5032274;28;20041;-79
2021/03/10 13:52:52;;;;;;;7.97;7.57;;;;;;;;;;5024819;28;20034;-80
2021/03/10 13:55:19;;;;;;;4.88;4.68;;;;;;;;;;5011670;28;20515;-80
2021/03/10 13:57:46;;;;;;;4.93;4.57;;;;;;;;;;5045955;28;20402;-80
2021/03/10 14:00:14;;;;;;;5.15;4.95;;;;;;;;;;5030109;28;20053;-80
2021/03/10 14:02:41;;;;;;;3.47;3.35;;;;;;;;;;5032875;28;20056;-80
2021/03/10 14:05:09;;;;;;;3.63;3.53;;;;;;;;;;5042474;28;20159;-80
2021/03/10 14:07:37;;;;;;;3.83;3.72;;;;;;;;;;5031070;28;20039;-80
2021/03/10 14:10:04;;;;;;;2.67;2.58;;;;;;;;;;5027877;28;20112;-80
2021/03/10 14:12:44;;;;;;;4.60;4.43;;;;;;;;;;5029071;28;20028;-80
2021/03/10 14:15:11;;;;;;;5.18;5.00;;;;;;;;;;5049780;28;20064;-80
2021/03/10 14:17:39;;;;;;;4.78;4.57;;;;;;;;;;5027503;28;20091;-80
2021/03/10 14:20:09;;;;;;;5.15;4.80;;;;;;;;;;5031355;28;20049;-80
2021/03/10 14:22:37;;;;;;;4.57;4.38;;;;;;;;;;5045442;28;20037;-80
2021/03/10 14:25:05;;;;;;;3.25;3.15;;;;;;;;;;5023431;28;20351;-80
2021/03/10 14:27:32;;;;;;;3.88;3.78;;;;;;;;;;5016919;28;20406;-80
2021/03/10 14:29:59;;;;;;;3.67;3.58;;;;;;;;;;5011439;28;20068;-80
2021/03/10 14:32:27;;;;;;;4.65;4.55;;;;;;;;;;5042923;28;20041;-80
2021/03/10 14:34:59;;;;;;;3.60;3.50;;;;;;;;;;5044328;28;20126;-80